TISXTFFF

Guest
Details From TISX - St Croix - Henry E Rohlsen
To TFFF - Martinique/Aime Cesaire Intl
Flight Number -
Tags decoded
Created
Modified
Stats Distance 291 nm / 539 km
Max Altitude 0 ft / 0 m
Waypoints 7
Social Downloads 2
Likes 0
Share VATSIM

Download

Looking for another format? Having issues loading an existing format? Contact us
Advertisement - Login to hide

Notes

Requested: TISX COY PORQE ILURI DUNTA EMOLA TFFF

Route

TISX COY PORQE ILURI DUNTA EMOLA TFFF

ID Type Via Altitude Latitude Longitude Leg Dist Tot Dist Heading (true) Name
O TISX APT - 0 ft / 0 m 17.70151˚ -64.80197˚ - 0 nm - St Croix - Henry E Rohlsen
COY VOR - 0 ft / 0 m 17.73444˚ -64.70072˚ 6 nm 6 nm 71° / 71° ST CROIX VOR-DME
PORQE FIX - 0 ft / 0 m 17.15999˚ -64.01449˚ 52 nm 58 nm 131° / 131° -
ILURI FIX - 0 ft / 0 m 16.30000˚ -63.00000˚ 77 nm 136 nm 131° / 132° -
DUNTA FIX - 0 ft / 0 m 15.60889˚ -62.19306˚ 62 nm 198 nm 132° / 132° -
EMOLA FIX - 0 ft / 0 m 15.13528˚ -61.64639˚ 42 nm 241 nm 132° / 132° -
O TFFF APT - 0 ft / 0 m 14.59103˚ -61.00317˚ 49 nm 290 nm 131° / 131° Martinique/Aime Cesaire Intl

Altitude Profile

Advertisement - Login to hide

Weather


0- 5 10 15 20 25 30 35+ Temperature / ° C

Clouds and Precipitation
Forecast for 2017-12-12 12:00 UTC. Updated 2 hours ago

Ground ~20,000 ft ~40,000 ft Winds

TISX

Details ICAO TISX (STX)
Name St Croix - Henry E Rohlsen
Region USA (U.S. Virgin Islands)
Timezone America/St_Thomas (UTC-4.0)
Stats Elevation 65 ft / 20 m (AMSL)
Location 17.701505° -64.801975°
Runways 1
Magnetic Variation 13.676° W

METAR

TISX 120953Z AUTO 03004KT 10SM CLR 22/21 A2992

Decode

TAF

TAF TISX 120535Z 1206/1306 VRB05KT P6SM FEW025 SCT040 FM121430 12010KT P6SM SCT030 SCT050 FM122300 VRB05KT P6SM SCT025

Decode

Departure Runways

ID Width Length Bearing (true) Bearing (mag) Surface Threshold Offset Overrun Length
10 151 ft / 46 m 9,969 ft / 3,039 m 83.93° 97.61° Asphalt 0 ft / 0 m 200 ft / 61 m
28 151 ft / 46 m 9,969 ft / 3,039 m 263.93° 277.61° Asphalt 984 ft / 300 m 200 ft / 61 m

TFFF

Details ICAO TFFF (FDF)
Name Martinique/Aime Cesaire Intl
Region France (Guadeloupe, Martinique, Saint Barthélemy, Saint Martin)
Timezone America/Martinique (UTC-4.0)
Stats Elevation 16 ft / 5 m (AMSL)
Location 14.591032° -61.003173°
Runways 1
Magnetic Variation 15.058° W

METAR

TFFF 121030Z AUTO 15003KT CAVOK 21/21 Q1013

Decode

TAF

TAF TFFF 120500Z 1206/1306 CNL

Decode

Destination Runways

ID Width Length Bearing (true) Bearing (mag) Surface Threshold Offset Overrun Length
09 148 ft / 45 m 9,852 ft / 3,003 m 79.93° 94.99° Asphalt 0 ft / 0 m 0 ft / 0 m
27 148 ft / 45 m 9,852 ft / 3,003 m 259.94° 275.00° Asphalt 820 ft / 250 m 948 ft / 289 m

Approach Navaids

Runway Type Ident Frequency Range Bearing (true) Bearing (mag) Slope Elevation
09 Localiser FF 109.90 MHz 18 nm / 33 km 79.90° 94.96° - 16 ft / 5 m (AMSL)
09 Glidescope FF 109.90 MHz 10 nm / 19 km 79.93° 94.99° 3.00° 16 ft / 5 m (AMSL)

Popular Alternatives